CheckWX is a tool to help pilots better visualize weather data.  It is not intended as a substitute for an official pre-flight weather briefing.

19:00:56 UTC

KDSM METAR
Des Moines International Airport
Des Moines, Iowa, USA
Current

1 hour ago

KDSM 221754Z 10008KT 10SM FEW060 SCT150 BKN200 BKN250 M03/M10 A3032 RMK AO2 SLP282 4/007 933013 T10331100 11033 21094 58014
Observed
Feb-22 @ 17:54 UTC
Wind
  • 100° at 8 KTS
Visibility
10 SM
Flight Rules
VFR
Cloud Levels
  • Few at 6,000' AGL
  • Scattered at 15,000' AGL
  • Broken at 20,000' AGL
  • Broken at 25,000' AGL
Temperature
-3°C / 27°F
Dewpoint
-10°C / 14°F
Humidity
59%
Altimeter
30.32" Hg
Pressure
1028.2 hPa
Snow Depth
7"
Previous

2 hours ago

KDSM 221654Z 10008KT 10SM FEW150 SCT250 M04/M11 A3035 RMK AO2 SLP291 T10441106
Observed
Feb-22 @ 16:54 UTC
Wind
  • 100° at 8 KTS
Visibility
10 SM
Flight Rules
VFR
Cloud Levels
  • Few at 15,000' AGL
  • Scattered at 25,000' AGL
Temperature
-4°C / 25°F
Dewpoint
-11°C / 12°F
Humidity
59%
Altimeter
30.35" Hg
Pressure
1029.1 hPa
Previous

3 hours ago

KDSM 221554Z 08007KT 10SM FEW150 FEW250 M05/M11 A3036 RMK AO2 SLP296 T10501106
Observed
Feb-22 @ 15:54 UTC
Wind
  • 080° at 7 KTS
Visibility
10 SM
Flight Rules
VFR
Cloud Levels
  • Few at 15,000' AGL
  • Few at 25,000' AGL
Temperature
-5°C / 23°F
Dewpoint
-11°C / 12°F
Humidity
63%
Altimeter
30.36" Hg
Pressure
1029.6 hPa